Fort Washakie, Wyoming
Current Conditions -  °F | °C
As of 8:53 AM on Monday 22 Dec 2014 (Local Time) from KLND Reporting Station
Few Clouds Few Clouds  
Wind Chill: 24°   Ceiling: Unl
Heat Index: 24°   Visibility: 10mi
Dew Point: 13°   Wind: 3mph
Humidity: 62%   Direction: 150°SSE
Pressure: 29.75"   Gusts: NA
Location:  43.01°N, 108.88°W
Report Text: KLND 221553Z AUTO 15003KT 10SM FEW085 FEW110 M04/M11 A2975 RMK AO2 SLP098 T10441106
Loading
Personal Weather Stations






























Interactive Weather Map New forecast layout! Learn more

10-Day Weather Forecast

Advertisements
Track Severe Weather on mobile